Fort Smith Regional Airport
KFSM : now visible

Airfield :











YOU CAN JOIN US ON...

 
LOGIN :

Register | Disclaimer

   EN    FR    IT 

 









Legend :    VFR   Marginal VFR   IFR   Intensive IFR   Very Intensive IFR
Visi :
Ceiling :
>= 8 km
>= 3000ft
5 to 8 km
1000 to 3000 ft
1500m to 5 km
500 to 1000 ft
800 to 1500m
200 to 500 ft
< 800m
< 200 ft
Symbols :   Thunderstorms  Fog  Heavy snow  Heavy precipitations  Wind > 20 kt






- Airport Elevation : 469 ft
- IATA code : FSM


KFSM - Fort Smith Regional

CURRENT METAR :
  • 231853Z 17004KT 10SM OVC025 27/22 A2985 RMK AO2 SLP102 T02670217

EXPIRED METARs :
  • 231753Z 12006KT 10SM OVC025 26/21 A2987 RMK AO2 SLP111 T02610211 10261 20200 58000
  • 231738Z VRB06KT 10SM OVC028 26/21 A2988 RMK AO2 T02610206
  • 231653Z 12006KT 10SM OVC033 26/21 A2988 RMK AO2 SLP115 T02560206
  • 231608Z 13007KT 10SM SCT021 BKN037 26/20 A2989 RMK AO2 T02560200
  • 231553Z 14007KT 10SM SCT020 26/20 A2988 RMK AO2 SLP115 T02560200
  • 231453Z 13007KT 10SM CLR 24/19 A2987 RMK AO2 SLP111 T02440189 53008

TAF KFSM
Valid from the 23 at 18:00 until the 24 at 18:00 UTC


231729Z 2318/2418 13007KT P6SM VCSH BKN035
TEMPO 2318/2321 BKN025
FM240100 09005KT P6SM BKN040
PROB30 2406/2412 4SM -TSRA BKN025CB
FM241200 12008KT P6SM BKN025
KZME FIR / North America



MET'MAP, your aeronautical weather chart ! - Copyright ORBIFLY December 2007 - Disclaimer

ORBIFLY MET'MAP TEAM :

Programming & Development : Alexandra Zaïnal
Original concept : Baudouin d'Aumeries
Technical & hardware support : Manuel Goepfert
Assistance : Marc-Olivier Méhu




SOURCES & CREDITS :

   NOAA       Earth
Advisory